METAR

Letisková meteorologická správa METAR

Meteorologické informácie z ďalších profesionálnych meteorologických staníc SHMÚ zobrazené v tvare zodpovedajúcom pravidlám kódovania správ METAR sú uvedené v položke „METSYN

Informácie o správe METAR

30.07.2016 - 01:30 UTC

METAR LZIB 300130Z 23003KT CAVOK 19/16 Q1015=
METAR LZKZ 300130Z 33003KT 9999 MIFG FEW001 17/15 Q1015=
METAR LZPP 300130Z AUTO 34004KT 9999 NCD 16/16 Q1015=
METAR LZSL 300130Z 04003KT 350V080 CAVOK 17/16 Q1016=
METAR LZTT 300130Z 27006KT CAVOK 15/14 Q1016=
METAR LZZI 300130Z 35002KT 3500 BR OVC002 17/17 Q1016=

30.07.2016 - 01:00 UTC

METAR LZIB 300100Z 23004KT CAVOK 21/16 Q1015=
METAR LZKZ 300100Z VRB01KT 9999 MIFG NSC 17/15 Q1015=
METAR LZPP 300100Z AUTO VRB01KT 9999 NCD 17/16 Q1015=
METAR LZSL 300100Z 00000KT 9999 FEW052 SCT100 17/16 Q1016=
METAR LZTT 300100Z 25009KT CAVOK 15/14 Q1016=
METAR LZZI 300100Z VRB02KT 3300 BR OVC002 17/17 Q1016=

30.07.2016 - 01:00 UTC

METAR LZMC 300100Z NIL=
METAR LZPW 300100Z AUTO 12002KT 1400 ////// 15/14
Q1015=

skok na menu ↑


skok na začiatok stránky ↑